Portada
METAR-TAF:

METAR-TAF

Aeroports :

Pyongyang, Corea del Nord

latitud: 39-02N, longitud: 125-47E, altitud: 36 m

METAR: manca

Hora: 09:30 (01:00 UTC)

Pronòstic

L'informe es va fer fa 3 hores i 50 minuts, a les 21:10 UTC
Pronòstic vàlid del 20 a les 00 UTC al 20 a les 24 UTC
Vent 6 kt del Sud-Est
Visibilitat: 5000 m
boirina
Evolucionant progressivament
l' 20 a les 02 UTC al 20 a les 04 UTC
Vent 10 kt del Sud
Visibilitat 10 km o més
Cel cobert a una alçada de 3000 ft
Temporalment
l' 20 a les 04 UTC al 20 a les 20 UTC
Visibilitat: 2000 m
Cel cobert a una alçada de 1000 ft
pluja

TAF: ZKPY 192110Z 2000/2024 14003MPS 5000 BR NSC TX13/2006Z TN05/2020Z BECMG 2002/2004 18005MPS 9999 OVC030 TEMPO 2004/2020 2000 -RA OVC010

Observacions i pronòstics meteorològics de més de 4000 aeroports (METAR i TAF).

Les estacions disponibles són els punts grocs i vermells al mapa.

Posi el ratolí al punt desitjat per veure el nom de l'estació.

Feu clic per veure les observacions i els pronòstics meteorològics.

Per canviar el mapa: feu clic els botons verds amb una creu de color negre per apropar; al botó verd amb un guió per allunyar la imatge; o en les fletxes verdes per a mapes adjacents.


METAR-TAF: